Time;durP1;ratioP1;P1;durP2;ratioP2;P2;SDS_P1;SDS_P2;PMS_P1;PMS_P2;Temp;Humidity;BMP_temperature;BMP_pressure;BME280_temperature;BME280_humidity;BME280_pressure;Samples;Min_cycle;Max_cycle;Signal;HPM_P1;HPM_P2
2023/03/24 00:00:22;;;;;;;4.90;2.80;;;;;;;10.68;100.00;99726.34;5291060;28;20039;-68
2023/03/24 00:02:55;;;;;;;5.05;2.63;;;;;;;10.70;100.00;99721.69;5293864;28;20035;-68
2023/03/24 00:05:27;;;;;;;5.90;2.63;;;;;;;10.71;100.00;99720.69;5298827;28;20034;-68
2023/03/24 00:08:01;;;;;;;6.32;2.97;;;;;;;10.72;100.00;99714.38;5294633;28;20032;-68
2023/03/24 00:10:33;;;;;;;5.93;3.42;;;;;;;10.71;100.00;99704.69;5287690;28;20030;-68
2023/03/24 00:13:04;;;;;;;6.43;2.90;;;;;;;10.71;100.00;99706.53;5301266;28;20024;-68
2023/03/24 00:15:36;;;;;;;5.95;2.83;;;;;;;10.68;100.00;99709.47;5291270;28;20028;-68
2023/03/24 00:18:09;;;;;;;6.85;2.53;;;;;;;10.74;100.00;99707.06;5298193;28;20067;-68
2023/03/24 00:20:41;;;;;;;5.63;2.55;;;;;;;10.82;100.00;99702.84;5290951;28;20027;-68
2023/03/24 00:23:12;;;;;;;6.68;3.38;;;;;;;10.77;100.00;99704.09;5288934;28;20077;-68
2023/03/24 00:25:44;;;;;;;7.50;3.42;;;;;;;10.82;100.00;99710.84;5291498;28;20114;-68
2023/03/24 00:28:15;;;;;;;6.45;3.20;;;;;;;10.81;100.00;99703.81;5290647;28;20039;-68
2023/03/24 00:30:51;;;;;;;6.28;3.03;;;;;;;10.83;100.00;99702.66;5290650;28;20034;-68
2023/03/24 00:33:24;;;;;;;6.97;2.75;;;;;;;10.83;100.00;99710.66;5288957;28;20103;-68
2023/03/24 00:35:56;;;;;;;5.90;2.83;;;;;;;10.85;100.00;99694.53;5284936;28;20023;-68
2023/03/24 00:38:28;;;;;;;5.20;2.55;;;;;;;10.87;100.00;99692.53;5291189;28;20030;-68
2023/03/24 00:41:00;;;;;;;4.38;2.63;;;;;;;10.89;100.00;99680.75;5291214;28;20027;-68
2023/03/24 00:43:32;;;;;;;5.38;2.65;;;;;;;10.93;100.00;99675.94;5295888;28;20466;-68
2023/03/24 00:46:10;;;;;;;5.65;2.28;;;;;;;10.95;100.00;99672.16;5302225;28;20570;-68
2023/03/24 00:48:42;;;;;;;4.30;2.38;;;;;;;10.97;100.00;99672.00;5290276;28;20040;-68
2023/03/24 00:51:13;;;;;;;4.30;2.30;;;;;;;10.98;100.00;99660.31;5280380;28;20439;-68
2023/03/24 00:53:44;;;;;;;5.40;2.25;;;;;;;11.02;100.00;99663.53;5300204;28;20027;-68
2023/03/24 00:56:16;;;;;;;4.60;1.92;;;;;;;11.03;100.00;99659.91;5298914;28;20032;-68
2023/03/24 00:58:47;;;;;;;3.95;2.00;;;;;;;11.03;100.00;99657.22;5291658;28;20028;-68
2023/03/24 01:01:20;;;;;;;4.50;2.53;;;;;;;11.05;100.00;99648.06;5286355;28;20031;-68
2023/03/24 01:03:52;;;;;;;4.53;2.25;;;;;;;11.12;100.00;99657.16;5299640;28;20043;-68
2023/03/24 01:06:24;;;;;;;4.20;2.10;;;;;;;11.08;100.00;99649.59;5292342;28;20500;-68
2023/03/24 01:08:56;;;;;;;4.47;2.50;;;;;;;11.10;100.00;99647.59;5295487;28;20054;-68
2023/03/24 01:11:28;;;;;;;5.68;2.63;;;;;;;11.11;100.00;99657.31;5296629;28;20009;-68
2023/03/24 01:13:59;;;;;;;5.80;2.05;;;;;;;11.12;100.00;99640.28;5302700;28;20024;-68
2023/03/24 01:16:31;;;;;;;4.53;2.22;;;;;;;11.12;100.00;99637.59;5283993;28;20051;-68
2023/03/24 01:19:03;;;;;;;4.07;1.98;;;;;;;11.14;100.00;99641.84;5295333;28;20032;-68
2023/03/24 01:21:36;;;;;;;5.10;2.40;;;;;;;11.15;100.00;99634.66;5300017;28;20030;-68
2023/03/24 01:24:08;;;;;;;5.15;2.50;;;;;;;11.14;100.00;99627.63;5298252;28;20032;-68
2023/03/24 01:26:39;;;;;;;4.35;2.40;;;;;;;11.13;100.00;99628.63;5288381;28;20067;-68
2023/03/24 01:29:11;;;;;;;5.10;2.35;;;;;;;11.11;100.00;99619.94;5305704;28;20024;-68
2023/03/24 01:31:42;;;;;;;5.50;2.17;;;;;;;11.15;100.00;99626.66;5293293;28;20088;-68
2023/03/24 01:34:14;;;;;;;4.78;2.22;;;;;;;11.09;100.00;99621.91;5293119;28;20031;-69
2023/03/24 01:36:45;;;;;;;5.15;2.78;;;;;;;11.11;100.00;99625.28;5299292;28;20023;-68
2023/03/24 01:39:16;;;;;;;5.25;2.90;;;;;;;11.08;100.00;99617.56;5296834;28;20031;-68
2023/03/24 01:41:48;;;;;;;5.18;2.40;;;;;;;11.07;100.00;99619.38;5294556;28;20670;-68
2023/03/24 01:44:36;;;;;;;4.30;2.22;;;;;;;11.06;100.00;99615.03;5300450;28;20034;-68
2023/03/24 01:47:08;;;;;;;5.95;2.47;;;;;;;11.06;100.00;99612.34;5299644;28;20084;-68
2023/03/24 01:49:46;;;;;;;4.72;2.58;;;;;;;11.07;100.00;99619.38;5291758;28;20036;-68
2023/03/24 01:52:25;;;;;;;4.90;2.83;;;;;;;11.07;100.00;99613.22;5291798;28;20032;-68
2023/03/24 01:55:01;;;;;;;4.47;2.45;;;;;;;11.04;100.00;99602.84;5290934;28;20024;-68
2023/03/24 01:57:43;;;;;;;7.47;3.17;;;;;;;11.05;100.00;99610.69;5290765;28;20036;-68
2023/03/24 02:00:17;;;;;;;4.25;2.65;;;;;;;11.04;100.00;99597.50;5288035;28;20028;-68
2023/03/24 02:02:59;;;;;;;6.30;2.90;;;;;;;11.06;100.00;99598.19;5297246;28;20020;-68
2023/03/24 02:05:34;;;;;;;5.07;2.88;;;;;;;11.06;100.00;99604.34;5294438;28;20028;-68
2023/03/24 02:08:17;;;;;;;5.80;2.70;;;;;;;11.03;100.00;99602.00;5298075;28;20042;-68
2023/03/24 02:10:51;;;;;;;6.38;2.80;;;;;;;11.07;100.00;99598.03;5290408;28;20028;-68
2023/03/24 02:13:22;;;;;;;5.20;2.60;;;;;;;11.05;100.00;99591.19;5299967;28;20034;-68
2023/03/24 02:16:25;;;;;;;5.45;2.83;;;;;;;11.04;100.00;99592.16;5281390;28;20031;-68
2023/03/24 02:19:18;;;;;;;5.90;2.92;;;;;;;11.04;100.00;99601.00;5284961;28;20055;-68
2023/03/24 02:22:02;;;;;;;4.93;2.97;;;;;;;11.03;100.00;99606.50;5288121;28;20414;-68
2023/03/24 02:24:51;;;;;;;5.60;2.90;;;;;;;11.04;100.00;99605.50;5291282;28;20545;-68
2023/03/24 02:28:02;;;;;;;5.18;2.95;;;;;;;11.03;100.00;99596.66;5289347;28;20075;-68
2023/03/24 02:30:45;;;;;;;5.07;3.08;;;;;;;11.05;100.00;99599.19;5291401;28;20710;-68
2023/03/24 02:33:32;;;;;;;5.60;3.22;;;;;;;11.01;100.00;99590.63;5298110;28;20132;-68
2023/03/24 02:36:25;;;;;;;6.05;3.45;;;;;;;11.03;100.00;99601.16;5289287;28;20126;-68
2023/03/24 02:39:16;;;;;;;6.95;3.10;;;;;;;11.05;100.00;99605.34;5289915;28;20024;-68
2023/03/24 02:42:22;;;;;;;4.55;3.08;;;;;;;11.03;100.00;99602.00;5290268;28;20043;-68
2023/03/24 02:45:02;;;;;;;5.43;3.40;;;;;;;11.02;100.00;99597.63;5290120;28;20032;-68
2023/03/24 02:47:45;;;;;;;6.28;3.40;;;;;;;11.02;100.00;99610.16;5285929;28;20453;-68
2023/03/24 02:50:38;;;;;;;6.30;3.65;;;;;;;11.02;100.00;99615.50;5284262;28;20039;-68
2023/03/24 02:53:19;;;;;;;8.18;3.45;;;;;;;11.02;100.00;99620.84;5281862;28;20094;-68
2023/03/24 02:56:41;;;;;;;6.75;3.30;;;;;;;11.03;100.00;99627.88;5288000;28;20432;-68
2023/03/24 02:59:21;;;;;;;6.65;3.35;;;;;;;11.03;100.00;99635.88;5273547;28;20050;-67
2023/03/24 03:02:02;;;;;;;5.53;3.42;;;;;;;11.04;100.00;99651.72;5284295;28;20071;-67
2023/03/24 03:04:45;;;;;;;7.32;4.05;;;;;;;11.03;100.00;99666.06;5288057;28;20137;-67
2023/03/24 03:07:22;;;;;;;6.28;3.70;;;;;;;11.03;100.00;99670.56;5278156;28;20323;-69
2023/03/24 03:10:14;;;;;;;4.30;2.70;;;;;;;11.02;100.00;99677.72;5288825;28;20054;-68
2023/03/24 03:12:49;;;;;;;4.70;2.72;;;;;;;10.97;100.00;99674.66;5291480;28;20028;-67
2023/03/24 03:15:27;;;;;;;4.63;2.35;;;;;;;10.95;100.00;99680.16;5291506;28;20036;-67
2023/03/24 03:18:08;;;;;;;3.88;2.28;;;;;;;10.89;100.00;99690.56;5283131;28;20028;-68
2023/03/24 03:20:49;;;;;;;4.40;2.65;;;;;;;10.83;100.00;99700.00;5284959;28;20027;-67
2023/03/24 03:23:34;;;;;;;4.55;2.25;;;;;;;10.72;100.00;99695.72;5286586;28;20032;-67
2023/03/24 03:26:12;;;;;;;3.72;1.70;;;;;;;10.63;100.00;99690.41;5286648;28;20513;-67
2023/03/24 03:28:51;;;;;;;3.72;1.10;;;;;;;10.53;100.00;99680.63;5284855;28;20028;-67
2023/03/24 03:31:30;;;;;;;2.90;0.80;;;;;;;10.37;100.00;99696.38;5287656;28;20035;-68
2023/03/24 03:34:17;;;;;;;4.57;1.10;;;;;;;10.34;100.00;99702.84;5288913;28;20127;-67
2023/03/24 03:37:26;;;;;;;4.45;1.08;;;;;;;10.21;100.00;99728.94;5285493;28;20572;-68
2023/03/24 03:40:04;;;;;;;4.32;1.10;;;;;;;10.08;100.00;99739.88;5291417;28;20039;-68
2023/03/24 03:42:35;;;;;;;3.22;0.98;;;;;;;10.00;100.00;99731.75;5288464;28;20040;-67
2023/03/24 03:45:09;;;;;;;4.15;1.30;;;;;;;9.93;100.00;99747.50;5290408;28;20036;-68
2023/03/24 03:47:40;;;;;;;4.63;1.40;;;;;;;9.91;100.00;99753.91;5281691;28;20553;-67
2023/03/24 03:50:12;;;;;;;4.15;1.40;;;;;;;9.88;100.00;99756.88;5283648;28;20046;-67
2023/03/24 03:52:43;;;;;;;7.93;3.08;;;;;;;9.83;100.00;99767.94;5292676;28;20024;-68
2023/03/24 03:55:15;;;;;;;7.72;4.47;;;;;;;9.75;100.00;99770.47;5290665;28;20036;-68
2023/03/24 03:57:47;;;;;;;9.95;4.95;;;;;;;9.69;100.00;99765.69;5281800;28;20019;-68
2023/03/24 04:00:21;;;;;;;8.82;4.32;;;;;;;9.58;100.00;99774.63;5289204;28;20028;-68
2023/03/24 04:03:04;;;;;;;6.75;3.40;;;;;;;9.50;100.00;99763.84;5280966;28;20063;-67
2023/03/24 04:05:44;;;;;;;10.88;3.47;;;;;;;9.41;100.00;99773.47;5302811;28;20071;-67
2023/03/24 04:08:25;;;;;;;9.68;2.78;;;;;;;9.38;100.00;99784.41;5280230;28;20021;-67
2023/03/24 04:11:09;;;;;;;9.07;2.80;;;;;;;9.32;100.00;99785.78;5284677;28;20020;-67
2023/03/24 04:13:59;;;;;;;9.10;3.13;;;;;;;9.28;100.00;99807.47;5276511;28;20051;-67
2023/03/24 04:16:51;;;;;;;7.45;2.60;;;;;;;9.22;100.00;99801.72;5281819;28;20032;-68
2023/03/24 04:20:00;;;;;;;6.93;2.17;;;;;;;9.21;100.00;99826.66;5287705;28;20028;-67
2023/03/24 04:23:13;;;;;;;6.60;2.10;;;;;;;9.18;100.00;99834.06;5282934;28;20035;-68
2023/03/24 04:25:48;;;;;;;8.20;2.30;;;;;;;9.16;100.00;99833.34;5288295;28;20024;-67
2023/03/24 04:28:38;;;;;;;9.30;2.92;;;;;;;9.14;100.00;99824.66;5299229;28;20047;-68
2023/03/24 04:31:28;;;;;;;8.73;2.00;;;;;;;9.10;100.00;99829.41;5287618;28;20028;-68
2023/03/24 04:34:07;;;;;;;7.38;1.98;;;;;;;9.01;100.00;99836.38;5285745;28;20107;-68
2023/03/24 04:36:53;;;;;;;10.02;2.25;;;;;;;8.98;100.00;99843.78;5289497;28;20442;-68
2023/03/24 04:39:28;;;;;;;7.25;1.73;;;;;;;8.91;100.00;99850.59;5285009;28;20091;-68
2023/03/24 04:42:07;;;;;;;9.02;2.20;;;;;;;8.84;100.00;99847.63;5295450;28;21028;-68
2023/03/24 04:44:40;;;;;;;6.20;1.80;;;;;;;8.81;100.00;99855.84;5283817;28;20392;-68
2023/03/24 04:47:12;;;;;;;8.27;2.45;;;;;;;8.77;100.00;99863.25;5291729;28;20028;-68
2023/03/24 04:49:43;;;;;;;6.38;2.42;;;;;;;8.73;100.00;99872.47;5286770;28;20024;-68
2023/03/24 04:52:14;;;;;;;6.65;2.50;;;;;;;8.71;100.00;99860.28;5287506;28;20028;-68
2023/03/24 04:54:46;;;;;;;9.43;3.08;;;;;;;8.69;100.00;99870.19;5293602;28;20020;-67
2023/03/24 04:57:17;;;;;;;8.85;2.80;;;;;;;8.63;100.00;99867.06;5288335;28;20025;-68
2023/03/24 04:59:48;;;;;;;10.55;2.85;;;;;;;8.61;100.00;99860.19;5288706;28;20466;-67
2023/03/24 05:02:20;;;;;;;9.52;3.38;;;;;;;8.56;100.00;99862.41;5288244;28;20123;-68
2023/03/24 05:04:51;;;;;;;10.13;3.20;;;;;;;8.54;100.00;99880.31;5286807;28;20059;-67
2023/03/24 05:07:22;;;;;;;13.23;3.42;;;;;;;8.51;100.00;99878.72;5285843;28;20028;-67
2023/03/24 05:09:54;;;;;;;9.98;3.05;;;;;;;8.48;100.00;99876.34;5293519;28;20078;-68
2023/03/24 05:12:26;;;;;;;9.30;3.42;;;;;;;8.43;100.00;99887.34;5281630;28;20020;-68
2023/03/24 05:14:57;;;;;;;8.88;3.50;;;;;;;8.41;100.00;99893.72;5287432;28;20067;-68
2023/03/24 05:17:29;;;;;;;12.60;3.40;;;;;;;8.38;100.00;99886.00;5286203;28;20023;-68
2023/03/24 05:20:00;;;;;;;8.43;3.63;;;;;;;8.35;100.00;99897.72;5282263;28;20071;-68
2023/03/24 05:22:31;;;;;;;11.82;3.05;;;;;;;8.30;100.00;99905.22;5289500;28;20024;-68
2023/03/24 05:25:04;;;;;;;7.47;3.50;;;;;;;8.35;100.00;99912.84;5298497;28;20084;-68
2023/03/24 05:27:35;;;;;;;10.95;2.95;;;;;;;8.32;100.00;99908.63;5280314;28;20048;-67
2023/03/24 05:30:07;;;;;;;8.65;2.63;;;;;;;8.29;100.00;99911.53;5291512;28;20043;-67
2023/03/24 05:32:39;;;;;;;8.90;3.60;;;;;;;8.30;100.00;99921.19;5289871;28;20035;-67
2023/03/24 05:35:10;;;;;;;10.55;2.85;;;;;;;8.31;100.00;99917.56;5287893;28;20517;-68
2023/03/24 05:37:42;;;;;;;10.52;2.70;;;;;;;8.30;100.00;99921.19;5280346;28;20177;-67
2023/03/24 05:40:14;;;;;;;12.07;2.70;;;;;;;8.33;100.00;99917.44;5286825;28;20157;-67
2023/03/24 05:42:48;;;;;;;7.70;2.42;;;;;;;8.33;100.00;99926.25;5293360;28;20047;-68
2023/03/24 05:45:19;;;;;;;10.48;2.83;;;;;;;8.36;100.00;99925.16;5306068;28;20781;-67
2023/03/24 05:47:51;;;;;;;9.23;2.78;;;;;;;8.38;100.00;99928.53;5286286;28;20527;-68
2023/03/24 05:50:23;;;;;;;14.60;3.10;;;;;;;8.38;100.00;99945.34;5285629;28;20032;-68
2023/03/24 05:52:54;;;;;;;9.75;2.90;;;;;;;8.36;100.00;99949.06;5281442;28;20021;-68
2023/03/24 05:55:26;;;;;;;10.52;3.33;;;;;;;8.35;100.00;99942.91;5282690;28;20032;-68
2023/03/24 05:58:00;;;;;;;14.73;3.40;;;;;;;8.36;100.00;99946.41;5276737;28;20038;-68
2023/03/24 06:00:32;;;;;;;9.73;3.05;;;;;;;8.38;100.00;99941.81;5279324;28;20036;-68
2023/03/24 06:03:04;;;;;;;12.30;2.70;;;;;;;8.33;100.00;99944.03;5295332;28;20489;-68
2023/03/24 06:05:35;;;;;;;10.20;2.83;;;;;;;8.31;100.00;99944.16;5290234;28;20038;-67
2023/03/24 06:08:08;;;;;;;10.38;2.38;;;;;;;8.30;100.00;99937.13;5294018;28;20466;-68
2023/03/24 06:10:40;;;;;;;8.95;2.28;;;;;;;8.31;100.00;99938.00;5283582;28;20040;-67
2023/03/24 06:13:11;;;;;;;18.65;3.13;;;;;;;8.29;100.00;99946.09;5280209;28;20496;-67
2023/03/24 06:15:45;;;;;;;9.82;2.25;;;;;;;8.30;100.00;99944.25;5283309;28;20090;-67
2023/03/24 06:18:16;;;;;;;12.95;2.70;;;;;;;8.35;100.00;99950.06;5291237;28;20485;-67
2023/03/24 06:20:49;;;;;;;11.65;2.17;;;;;;;8.28;100.00;99949.69;5285544;28;20378;-67
2023/03/24 06:23:26;;;;;;;12.90;2.60;;;;;;;8.31;100.00;99953.94;5276734;28;20031;-68
2023/03/24 06:26:00;;;;;;;11.25;2.30;;;;;;;8.28;100.00;99956.84;5292932;28;20036;-69
2023/03/24 06:28:33;;;;;;;15.82;2.60;;;;;;;8.29;100.00;99964.69;5295682;28;20048;-68
2023/03/24 06:31:05;;;;;;;15.93;2.78;;;;;;;8.28;100.00;99965.63;5291522;28;20612;-68
2023/03/24 06:33:37;;;;;;;11.82;2.47;;;;;;;8.31;100.00;99965.41;5295913;28;20497;-68
2023/03/24 06:36:11;;;;;;;12.10;2.40;;;;;;;8.30;100.00;99969.00;5284717;28;20032;-68
2023/03/24 06:38:43;;;;;;;12.73;2.42;;;;;;;8.31;100.00;99984.00;5284426;28;20024;-67
2023/03/24 06:41:14;;;;;;;10.68;2.20;;;;;;;8.33;100.00;99976.75;5294174;28;20040;-67
2023/03/24 06:43:46;;;;;;;10.43;2.20;;;;;;;8.37;100.00;99986.16;5288846;28;20042;-68
2023/03/24 06:46:17;;;;;;;10.98;2.60;;;;;;;8.49;100.00;99983.50;5280246;28;20028;-70
2023/03/24 06:48:49;;;;;;;16.48;2.88;;;;;;;8.54;100.00;99986.66;5286025;28;20471;-68
2023/03/24 06:51:20;;;;;;;12.13;2.47;;;;;;;8.60;100.00;99981.66;5291164;28;20035;-68
2023/03/24 06:53:51;;;;;;;13.50;3.08;;;;;;;8.63;100.00;99985.91;5288076;28;20083;-68
2023/03/24 06:56:23;;;;;;;19.05;3.83;;;;;;;8.62;100.00;99990.34;5303796;28;20032;-68
2023/03/24 06:58:55;;;;;;;13.63;2.42;;;;;;;8.67;100.00;99986.47;5291794;28;20055;-68
2023/03/24 07:01:26;;;;;;;11.98;2.60;;;;;;;8.66;100.00;99984.78;5297991;28;20028;-68
2023/03/24 07:03:58;;;;;;;9.70;2.50;;;;;;;8.66;100.00;99974.16;5291413;28;20494;-68
2023/03/24 07:06:29;;;;;;;12.73;3.20;;;;;;;8.66;100.00;99982.97;5283907;28;20040;-68
2023/03/24 07:09:01;;;;;;;14.13;3.17;;;;;;;8.69;100.00;99985.38;5273622;28;20074;-68
2023/03/24 07:11:32;;;;;;;13.70;3.42;;;;;;;8.71;100.00;99980.78;5285746;28;20028;-68
2023/03/24 07:14:04;;;;;;;17.33;3.17;;;;;;;8.71;100.00;99988.75;5288171;28;20042;-69
2023/03/24 07:16:35;;;;;;;14.55;2.72;;;;;;;8.73;100.00;99986.81;5288922;28;20028;-68
2023/03/24 07:19:07;;;;;;;14.40;2.60;;;;;;;8.79;100.00;99996.09;5285738;28;20027;-68
2023/03/24 07:21:38;;;;;;;14.85;2.17;;;;;;;8.77;100.00;99990.06;5293330;28;20032;-68
2023/03/24 07:24:10;;;;;;;15.20;3.35;;;;;;;8.81;100.00;99995.00;5294797;28;20050;-68
2023/03/24 07:26:41;;;;;;;10.57;2.95;;;;;;;8.83;100.00;100002.84;5297550;28;20055;-68
2023/03/24 07:29:12;;;;;;;10.27;2.28;;;;;;;8.89;100.00;99997.03;5288092;28;20061;-68
2023/03/24 07:31:44;;;;;;;12.48;2.22;;;;;;;8.92;100.00;100018.06;5295361;28;20062;-68
2023/03/24 07:34:15;;;;;;;17.52;3.63;;;;;;;8.97;100.00;100018.50;5290907;28;20046;-68
2023/03/24 07:36:48;;;;;;;12.27;2.17;;;;;;;9.04;100.00;100024.19;5285882;28;20587;-68
2023/03/24 07:39:19;;;;;;;16.42;3.28;;;;;;;9.08;100.00;100022.09;5286545;28;20177;-68
2023/03/24 07:41:51;;;;;;;10.25;2.38;;;;;;;9.12;100.00;100024.38;5296499;28;20036;-69
2023/03/24 07:44:22;;;;;;;11.80;2.65;;;;;;;9.16;100.00;100031.13;5283787;28;20111;-68
2023/03/24 07:46:54;;;;;;;14.13;2.90;;;;;;;9.22;100.00;100024.44;5286231;28;20110;-69
2023/03/24 07:49:26;;;;;;;14.43;3.45;;;;;;;9.21;100.00;100034.25;5286953;28;20024;-68
2023/03/24 07:51:57;;;;;;;14.90;2.80;;;;;;;9.26;100.00;100035.69;5280187;28;20024;-69
2023/03/24 07:54:29;;;;;;;15.50;2.85;;;;;;;9.33;100.00;100031.53;5293752;28;20156;-68
2023/03/24 07:57:01;;;;;;;12.13;2.70;;;;;;;9.42;100.00;100036.09;5293964;28;20040;-68
2023/03/24 07:59:33;;;;;;;12.75;2.70;;;;;;;9.50;100.00;100036.28;5281661;28;20615;-68
2023/03/24 08:02:05;;;;;;;11.95;3.13;;;;;;;9.58;100.00;100033.78;5279824;28;20867;-69
2023/03/24 08:04:36;;;;;;;10.30;2.72;;;;;;;9.71;100.00;100038.09;5290846;28;20097;-68
2023/03/24 08:07:08;;;;;;;16.15;3.75;;;;;;;9.87;100.00;100035.75;5279852;28;20393;-68
2023/03/24 08:09:39;;;;;;;12.25;2.70;;;;;;;9.93;100.00;100039.72;5280634;28;20310;-68
2023/03/24 08:12:11;;;;;;;10.13;2.78;;;;;;;10.03;100.00;100048.63;5282808;28;20029;-68
2023/03/24 08:14:42;;;;;;;13.77;2.45;;;;;;;10.12;100.00;100045.13;5284799;28;20040;-68
2023/03/24 08:17:13;;;;;;;13.23;2.70;;;;;;;10.18;100.00;100051.75;5293016;28;20112;-68
2023/03/24 08:19:46;;;;;;;10.00;2.20;;;;;;;10.20;100.00;100063.13;5285835;28;20643;-68
2023/03/24 08:22:18;;;;;;;11.82;2.30;;;;;;;10.16;100.00;100049.25;5284203;28;20048;-68
2023/03/24 08:24:49;;;;;;;11.55;2.72;;;;;;;10.24;100.00;100047.69;5293420;28;20405;-68
2023/03/24 08:27:22;;;;;;;11.00;2.53;;;;;;;10.29;100.00;100054.31;5290684;28;20052;-68
2023/03/24 08:29:53;;;;;;;11.57;2.40;;;;;;;10.40;100.00;100054.25;5286227;28;20552;-68
2023/03/24 08:32:24;;;;;;;16.77;3.53;;;;;;;10.55;100.00;100061.88;5290140;28;20127;-68
2023/03/24 08:34:57;;;;;;;13.63;2.83;;;;;;;10.70;100.00;100052.50;5280682;28;20032;-69
2023/03/24 08:37:28;;;;;;;8.75;2.15;;;;;;;10.82;100.00;100058.56;5287229;28;20028;-68
2023/03/24 08:40:04;;;;;;;12.02;2.25;;;;;;;10.87;100.00;100053.63;5293393;28;20622;-68
2023/03/24 08:42:35;;;;;;;11.50;2.70;;;;;;;10.95;100.00;100055.63;5291121;28;20020;-69
2023/03/24 08:45:09;;;;;;;12.30;2.78;;;;;;;11.06;100.00;100059.97;5293686;28;20032;-68
2023/03/24 08:47:40;;;;;;;10.45;2.80;;;;;;;11.14;100.00;100063.66;5296895;28;20877;-68
2023/03/24 08:50:12;;;;;;;11.95;2.28;;;;;;;11.19;100.00;100065.88;5291869;28;20498;-69
2023/03/24 08:52:47;;;;;;;10.95;2.70;;;;;;;11.17;100.00;100068.69;5291832;28;20047;-68
2023/03/24 08:55:20;;;;;;;14.05;2.60;;;;;;;11.18;100.00;100074.91;5294814;28;20028;-68
2023/03/24 08:57:51;;;;;;;11.23;3.25;;;;;;;11.13;100.00;100077.97;5293859;28;20040;-68
2023/03/24 09:00:24;;;;;;;11.43;2.80;;;;;;;11.08;100.00;100069.53;5293394;28;20465;-68
2023/03/24 09:02:55;;;;;;;8.77;2.45;;;;;;;11.03;100.00;100076.28;5291956;28;20073;-68
2023/03/24 09:05:27;;;;;;;11.25;2.83;;;;;;;10.99;100.00;100083.72;5295012;28;20024;-68
2023/03/24 09:07:59;;;;;;;11.65;2.70;;;;;;;10.96;100.00;100073.31;5292456;28;20085;-68
2023/03/24 09:10:30;;;;;;;13.18;3.35;;;;;;;10.97;100.00;100075.84;5288489;28;20766;-68
2023/03/24 09:13:03;;;;;;;10.60;2.40;;;;;;;10.94;100.00;100081.47;5287845;28;20038;-68
2023/03/24 09:15:34;;;;;;;10.13;2.45;;;;;;;10.94;100.00;100067.28;5294208;28;20027;-68
2023/03/24 09:18:06;;;;;;;11.05;2.53;;;;;;;11.01;100.00;100072.88;5293897;28;20407;-68
2023/03/24 09:20:37;;;;;;;11.68;2.75;;;;;;;11.13;100.00;100083.31;5294073;28;20035;-68
2023/03/24 09:23:09;;;;;;;15.05;3.35;;;;;;;11.18;100.00;100088.25;5290803;28;20031;-68
2023/03/24 09:25:41;;;;;;;15.45;2.90;;;;;;;11.22;100.00;100089.66;5290350;28;20039;-68
2023/03/24 09:28:15;;;;;;;9.57;2.35;;;;;;;11.19;100.00;100093.41;5287617;28;20040;-68
2023/03/24 09:30:46;;;;;;;14.75;2.60;;;;;;;11.17;100.00;100102.56;5290857;28;20459;-68
2023/03/24 09:33:17;;;;;;;10.32;2.33;;;;;;;11.12;100.00;100102.13;5293010;28;20012;-68
2023/03/24 09:35:53;;;;;;;13.75;2.50;;;;;;;11.11;100.00;100108.47;5283995;28;20125;-68
2023/03/24 09:38:25;;;;;;;10.32;2.35;;;;;;;11.23;100.00;100103.84;5291117;28;20457;-68
2023/03/24 09:41:01;;;;;;;11.35;2.08;;;;;;;11.39;100.00;100109.47;5290944;28;20458;-68
2023/03/24 09:43:41;;;;;;;11.07;2.05;;;;;;;11.46;100.00;100120.41;5284573;28;20069;-68
2023/03/24 09:46:19;;;;;;;10.55;2.88;;;;;;;11.48;100.00;100116.63;5291805;28;20024;-68
2023/03/24 09:48:53;;;;;;;11.90;2.67;;;;;;;11.50;100.00;100116.47;5289743;28;20035;-68
2023/03/24 09:51:41;;;;;;;10.23;2.65;;;;;;;11.46;100.00;100110.56;5293337;28;20731;-68
2023/03/24 09:54:18;;;;;;;10.02;2.70;;;;;;;11.50;100.00;100116.47;5292065;28;20462;-68
2023/03/24 09:56:50;;;;;;;7.75;2.45;;;;;;;11.51;100.00;100110.16;5287344;28;20035;-68
2023/03/24 09:59:33;;;;;;;13.20;2.65;;;;;;;11.51;100.00;100118.19;5281911;28;21040;-68
2023/03/24 10:02:17;;;;;;;9.35;2.22;;;;;;;11.60;100.00;100113.78;5285825;28;20123;-68
2023/03/24 10:04:49;;;;;;;12.57;3.10;;;;;;;11.64;100.00;100117.88;5289030;28;20028;-68
2023/03/24 10:07:33;;;;;;;11.60;2.20;;;;;;;11.67;100.00;100112.25;5290417;28;20354;-68
2023/03/24 10:10:15;;;;;;;;;;;;;;;11.74;100.00;100119.56;5293313;28;20052;-68
2023/03/24 10:12:49;;;;;;;9.55;2.17;;;;;;;11.72;100.00;100112.69;5288826;28;19951;-68
2023/03/24 10:15:37;;;;;;;;;;;;;;;11.80;100.00;100118.13;5290754;28;20439;-68
2023/03/24 10:18:11;;;;;;;9.35;1.90;;;;;;;11.83;100.00;100125.03;5288004;28;19916;-69
2023/03/24 10:20:49;;;;;;;7.25;2.00;;;;;;;11.84;100.00;100127.56;5290751;28;20051;-68
2023/03/24 10:23:50;;;;;;;11.00;2.10;;;;;;;11.81;100.00;100121.66;5292270;28;20065;-68
2023/03/24 10:26:27;;;;;;;11.98;2.90;;;;;;;11.83;100.00;100125.88;5285099;28;20054;-68
2023/03/24 10:29:28;;;;;;;9.13;2.13;;;;;;;11.87;100.00;100121.06;5287564;28;20107;-68
2023/03/24 10:32:03;;;;;;;7.07;1.70;;;;;;;12.03;100.00;100121.34;5290363;28;20028;-68
2023/03/24 10:34:37;;;;;;;9.63;2.55;;;;;;;12.13;100.00;100116.81;5293363;28;20055;-68
2023/03/24 10:37:10;;;;;;;6.82;1.92;;;;;;;12.27;100.00;100112.84;5287120;28;20481;-69
2023/03/24 10:39:42;;;;;;;8.02;1.90;;;;;;;12.33;100.00;100106.91;5291861;28;20028;-68
2023/03/24 10:42:21;;;;;;;9.30;2.17;;;;;;;12.41;100.00;100114.19;5289216;28;20468;-68
2023/03/24 10:44:53;;;;;;;6.10;2.40;;;;;;;12.47;100.00;100120.78;5286099;28;20032;-68
2023/03/24 10:47:26;;;;;;;8.65;1.63;;;;;;;12.49;100.00;100121.50;5291482;28;20386;-68
2023/03/24 10:50:05;;;;;;;11.02;2.20;;;;;;;12.54;100.00;100119.19;5288202;28;20146;-68
2023/03/24 10:52:39;;;;;;;10.18;2.42;;;;;;;12.59;100.00;100111.56;5292931;28;20112;-68
2023/03/24 10:55:17;;;;;;;7.63;1.80;;;;;;;12.57;100.00;100116.22;5295831;28;20660;-68
2023/03/24 10:57:54;;;;;;;8.60;2.00;;;;;;;12.57;100.00;100105.53;5295604;28;20734;-68
2023/03/24 11:00:30;;;;;;;9.68;1.95;;;;;;;12.58;100.00;100109.91;5297697;28;20799;-68
2023/03/24 11:03:11;;;;;;;11.85;2.33;;;;;;;12.66;100.00;100115.34;5293732;28;20390;-68
2023/03/24 11:05:44;;;;;;;10.02;2.28;;;;;;;12.65;100.00;100108.28;5294842;28;20028;-68
2023/03/24 11:08:27;;;;;;;5.97;1.80;;;;;;;12.64;100.00;100103.94;5292901;28;20466;-69
2023/03/24 11:10:58;;;;;;;8.95;2.03;;;;;;;12.56;100.00;100111.88;5289009;28;20024;-68
2023/03/24 11:13:33;;;;;;;13.07;2.80;;;;;;;12.60;100.00;100118.63;5290770;28;20020;-68
2023/03/24 11:16:10;;;;;;;13.73;3.05;;;;;;;12.62;100.00;100108.59;5293445;28;20501;-68
2023/03/24 11:18:56;;;;;;;9.70;2.17;;;;;;;12.73;100.00;100120.94;5295213;28;20080;-68
2023/03/24 11:21:30;;;;;;;7.57;2.28;;;;;;;12.81;100.00;100118.38;5295028;28;20370;-69
2023/03/24 11:24:09;;;;;;;10.98;2.17;;;;;;;12.95;100.00;100111.66;5295082;28;20032;-68
2023/03/24 11:26:57;;;;;;;8.45;2.10;;;;;;;12.93;100.00;100105.59;5295030;28;20113;-68
2023/03/24 11:29:32;;;;;;;8.07;1.90;;;;;;;13.05;100.00;100093.69;5298010;28;20020;-69
2023/03/24 11:32:12;;;;;;;7.03;2.05;;;;;;;13.09;100.00;100110.28;5290686;28;20124;-68
2023/03/24 11:34:49;;;;;;;8.10;1.70;;;;;;;12.97;100.00;100092.75;5286309;28;20019;-68
2023/03/24 11:37:24;;;;;;;9.20;2.05;;;;;;;12.87;100.00;100108.91;5284550;28;20217;-70
2023/03/24 11:40:09;;;;;;;8.93;2.33;;;;;;;12.80;100.00;100115.84;5283243;28;20350;-68
2023/03/24 11:42:57;;;;;;;7.60;1.60;;;;;;;12.66;100.00;100109.16;5284604;28;20160;-68
2023/03/24 11:45:31;;;;;;;8.82;2.33;;;;;;;12.53;100.00;100122.88;5282118;28;20020;-68
2023/03/24 11:48:27;;;;;;;10.00;2.60;;;;;;;12.40;100.00;100135.75;5285280;28;20533;-68
2023/03/24 11:51:00;;;;;;;10.40;2.40;;;;;;;12.11;100.00;100163.41;5280643;28;20024;-69
2023/03/24 11:53:43;;;;;;;11.95;2.92;;;;;;;11.89;100.00;100165.44;5290041;28;20114;-68
2023/03/24 11:56:27;;;;;;;7.38;1.95;;;;;;;11.62;100.00;100166.13;5287315;28;20029;-67
2023/03/24 11:59:13;;;;;;;6.43;1.70;;;;;;;11.31;100.00;100170.72;5283229;28;20063;-68
2023/03/24 12:01:55;;;;;;;5.20;2.00;;;;;;;11.12;100.00;100185.75;5292517;28;20051;-68